Geokinetics Inc (NASDAQOTH:GEOKQ)

CAPS Rating: 2 out of 5

The Company is a global provider of seismic data acquisition services in land, marsh and swamp and shallow water environments to the oil and natural gas industry.

Results 1 - 99 of 122 : 1 2 Next »
Top
Pick
Member Name Member
Rating
Start
Date
Call Time
Frame
Start
Price
Stock
Gain
Index
Gain
Score Commentary
artcorvelay < 20 5/14/2012 Outperform 1Y $1.32 -99.43% +49.28% -148.71 0 Comment
MoneyPlusSport < 20 1/25/2012 Underperform 5Y $2.00 -99.62% +52.74% +152.36 0 Comment
jdparksASI < 20 9/7/2011 Outperform 5Y $4.60 -99.84% +67.04% -166.88 0 Comment
GreenHillFarAway 29.09 8/22/2011 Outperform 5Y $3.99 -99.81% +77.16% -176.97 0 Comment
Rehydrogenated 32.54 3/29/2011 Outperform 5Y $8.68 -99.91% +52.91% -152.82 0 Comment
2011Fool 99.52 3/25/2011 Outperform NS $8.99 -99.92% +52.76% -152.67 0 Comment
LEGMAKER < 20 2/28/2011 Outperform 5Y $10.59 -99.93% +50.94% -150.87 0 Comment
hcve < 20 1/12/2011 Outperform 3W $9.41 -99.92% +56.53% -156.45 0 Comment
MagicMaggie < 20 12/7/2010 Outperform 5Y $9.35 -99.92% +61.76% -161.68 0 Comment
OberHund < 20 12/6/2010 Outperform 5Y $9.29 -99.92% +63.48% -163.40 0 Comment
tiger6667 < 20 12/1/2010 Outperform 5Y $8.51 -99.91% +66.79% -166.70 0 Comment
bullinnature 95.33 11/9/2009 11/8/2010 Outperform 3Y $12.72 -99.94% +85.72% -185.66 0 Comment
cletedinero < 20 10/18/2010 Outperform 5Y $7.31 -99.90% +69.75% -169.65 0 Comment
brilin 63.43 10/4/2010 Outperform 5Y $6.00 -99.88% +75.29% -175.17 0 Comment
smallandmidcap 94.37 8/10/2010 Underperform 5Y $4.51 -99.83% +78.95% +178.79 0 Comment
roth450 37.69 7/20/2010 Outperform NS $3.99 -99.81% +89.36% -189.18 0 Comment
EffinObama < 20 7/19/2010 Outperform 3Y $4.06 -99.82% +88.03% -187.85 0 Comment
thisyearslosers < 20 6/29/2010 Outperform 5Y $4.12 -99.82% +91.59% -191.41 0 Comment
startunderfive < 20 6/28/2010 Outperform 5Y $4.49 -99.83% +86.18% -186.01 0 Comment
institutionsdown 70.94 6/22/2010 Outperform 5Y $4.88 -99.85% +79.95% -179.79 0 Comment
obsoleteaccount 20.08 6/21/2010 Outperform 5Y $4.91 -99.85% +80.41% -180.26 0 Comment
jroren 99.12 6/21/2010 Underperform 3M $5.36 -99.86% +77.23% +177.09 0 Comment
alexdavismith 90.74 6/21/2010 Underperform 5Y $5.36 -99.86% +77.23% +177.09 0 Comment
iddqkfyou < 20 5/11/2010 Outperform 5Y $6.30 -99.88% +74.22% -174.11 1 Comment
asitka 27.83 5/3/2010 Outperform 1Y $8.74 -99.91% +67.93% -167.85 0 Comment
Genomac 28.79 4/26/2010 Outperform 5Y $9.58 -99.92% +64.53% -164.45 0 Comment
HotDdogv2 < 20 4/26/2010 Outperform 5Y $9.58 -99.92% +64.53% -164.45 0 Comment
aliuce 34.76 4/23/2010 Outperform NS $9.53 -99.92% +65.30% -165.22 0 Comment
iamvoltron 24.20 4/22/2010 Outperform 5Y $8.47 -99.91% +67.33% -167.24 0 Comment
explicitonline 37.40 4/20/2010 Underperform 1Y $8.28 -99.91% +65.97% +165.88 0 Comment
markantonythe3rd 31.32 4/20/2010 Outperform 5Y $8.21 -99.91% +66.24% -166.14 0 Comment
dashark44 96.62 4/19/2010 Outperform 5Y $7.81 -99.90% +68.78% -168.69 0 Comment
Powderiver < 20 4/12/2010 Outperform 5Y $7.94 -99.91% +67.44% -167.35 0 Comment
manjux < 20 4/1/2010 Underperform 3M $7.32 -99.90% +70.14% +170.04 0 Comment
blue2fire < 20 3/22/2010 Outperform 5Y $7.39 -99.90% +73.86% -173.76 0 Comment
StThomasMoreEsq2 98.31 12/29/2009 2/19/2010 Outperform 3M $9.89 -99.92% +77.86% -177.78 0 Comment
HasOrHasNot 37.05 1/28/2010 Outperform 3Y $10.04 -99.93% +81.91% -181.83 0 Comment
CanisMinor 37.94 1/22/2010 Outperform 5Y $10.19 -99.93% +80.29% -180.21 0 Comment
FreeMortal 29.32 1/20/2010 Outperform 5Y $10.34 -99.93% +76.56% -176.48 0 Comment
StGiannaMolla 41.14 1/11/2010 Outperform 5Y $10.53 -99.93% +74.70% -174.62 0 Comment
Clockworker < 20 1/6/2010 Outperform 5Y $9.84 -99.92% +76.49% -176.42 0 Comment
TMFPlatoish 97.86 12/16/2009 Outperform 5Y $9.27 -99.92% +79.05% -178.97 0 Comment
chinneymartin 88.63 11/13/2009 Outperform 5Y $13.20 -99.94% +82.39% -182.33 0 Comment
wkcgx2 21.74 11/9/2009 Outperform 5Y $13.18 -99.94% +84.71% -184.66 0 Comment
outperformONLY < 20 10/19/2009 Outperform 5Y $19.49 -99.96% +83.81% -183.77 0 Comment
pennycruncher 51.86 10/19/2009 Outperform 5Y $19.49 -99.96% +83.81% -183.77 0 Comment
GIGManager < 20 10/8/2009 Outperform 3Y $19.24 -99.96% +87.77% -187.73 0 Comment
TotalStrange 97.59 8/12/2009 Outperform 1Y $14.58 -99.95% +99.94% -199.89 0 Comment
jddubya < 20 6/5/2009 Outperform 5Y $14.81 -99.95% +113.69% -213.64 0 Comment
TXmaverick < 20 6/2/2009 Underperform 3W $14.00 -99.95% +113.32% +213.27 1 Comment
marcet 71.72 5/28/2009 Outperform 5Y $13.26 -99.94% +122.83% -222.78 0 Comment
cwimbish 33.29 5/28/2009 Outperform 5Y $11.46 -99.93% +123.94% -223.87 1 Comment
theMovement 86.30 5/21/2009 Outperform 1Y $9.86 -99.92% +126.44% -226.36 0 Comment
unstoppablepeon < 20 10/27/2008 Underperform NS $6.01 -99.88% +137.80% +237.68 1 Comment
moonleg 23.00 10/22/2008 Underperform 1Y $6.45 -99.88% +120.56% +220.45 0 Comment
Chiownknee 83.83 10/20/2008 Outperform 5Y $8.28 -99.91% +113.45% -213.36 0 Comment
IWalker182 36.35 10/17/2008 Outperform NS $8.44 -99.91% +116.19% -216.11 0 Comment
wakoma < 20 10/8/2008 Outperform NS $12.80 -99.94% +110.90% -210.84 1 Comment
istilldontcare 97.25 9/18/2008 Outperform 5Y $17.34 -99.96% +76.87% -176.83 0 Comment
unotsomuch < 20 8/20/2008 Outperform 3Y $19.10 -99.96% +62.40% -162.36 0 Comment
ejtrains 34.75 8/11/2008 Outperform NS $20.00 -99.96% +59.76% -159.72 0 Comment
joetheboss 59.42 6/11/2008 Outperform 3Y $19.57 -99.96% +53.92% -153.88 1 Comment
Sqwii < 20 6/10/2008 Outperform 1Y $20.32 -99.96% +52.50% -152.46 1 Comment
floridabull33 61.46 5/22/2008 Outperform 3M $20.64 -99.96% +49.19% -149.16 0 Comment
GDragonsDad 50.62 5/7/2008 Outperform NS $19.04 -99.96% +47.36% -147.32 0 Comment
TexasGeoTech < 20 4/30/2008 Outperform 3M $19.04 -99.96% +48.63% -148.59 0 Comment
JCASS714 65.48 4/29/2008 Outperform 5Y $18.82 -99.96% +49.22% -149.18 0 Comment
tuckerjack 29.90 4/17/2008 Outperform 5Y $19.60 -99.96% +52.66% -152.63 0 Comment
greengal1 < 20 4/17/2008 Outperform 3Y $19.60 -99.96% +52.66% -152.63 1 Comment
ctnotebo 50.88 4/11/2008 Outperform 3Y $17.56 -99.96% +54.17% -154.13 0 Comment
louisianacoonie 23.83 3/31/2008 Outperform NS $17.95 -99.96% +57.44% -157.40 0 Comment
bengalmomof4 83.77 3/28/2008 Underperform 3M $17.78 -99.96% +56.34% +156.29 0 Comment
chad07gt 23.93 3/27/2008 Outperform NS $17.78 -99.96% +56.13% -156.09 0 Comment
MoltenTofu < 20 3/14/2008 Outperform NS $17.34 -99.96% +57.36% -157.32 0 Comment
AgendaPacific 42.15 3/14/2008 Outperform 3Y $17.34 -99.96% +57.36% -157.32 0 Comment
ToeInsider 38.18 3/10/2008 Outperform NS $16.26 -99.95% +60.95% -160.91 0 Comment
altitudeaddict 31.79 2/28/2008 Outperform 5Y $17.94 -99.96% +52.24% -152.20 0 Comment
tritterup 39.44 2/26/2008 Outperform NS $18.36 -99.96% +51.30% -151.26 0 Comment
arindamd < 20 2/26/2008 Outperform 1Y $17.79 -99.96% +52.26% -152.22 1 Comment
dmgchess 81.44 2/20/2008 Outperform 1Y $17.66 -99.96% +55.93% -155.89 0 Comment
aalvarma < 20 2/20/2008 Outperform 1Y $17.66 -99.96% +55.93% -155.89 0 Comment
thetoxman 83.19 2/14/2008 Outperform 1Y $17.31 -99.96% +52.56% -152.52 0 Comment
thatguy99 28.48 2/5/2008 Outperform 5Y $17.79 -99.96% +53.70% -153.66 0 Comment
mopomi 67.18 1/24/2008 Outperform 5Y $18.76 -99.96% +55.71% -155.67 0 Comment
ATWDLimited < 20 1/23/2008 Outperform NS $18.34 -99.96% +60.93% -160.89 0 Comment
financeman101 94.13 1/17/2008 Outperform NS $16.85 -99.96% +56.87% -156.83 0 Comment
evreeland 63.24 1/16/2008 Outperform 1Y $16.25 -99.95% +52.55% -152.50 0 Comment
Obyss 61.34 12/31/2007 Outperform 3W $19.14 -99.96% +42.04% -142.00 0 Comment
Kenster35OR 71.93 12/24/2007 Outperform 1Y $20.20 -99.96% +40.40% -140.36 0 Comment
StockRakedotcom < 20 12/13/2007 Outperform NS $22.40 -99.97% +41.62% -141.58 0 Comment
everything4less 40.06 12/13/2007 Outperform 1Y $22.40 -99.97% +41.62% -141.58 0 Comment
beachlokal < 20 12/12/2007 Outperform 5Y $23.10 -99.97% +40.50% -140.46 0 Comment
WavingSpices < 20 12/5/2007 Outperform NS $22.10 -99.97% +41.68% -141.64 0 Comment
SaltyGenes 55.92 11/27/2007 Outperform 5Y $22.14 -99.97% +48.19% -148.15 0 Comment
apper < 20 11/21/2007 Outperform 5Y $22.58 -99.97% +47.79% -147.76 0 Comment
ProjectJack < 20 11/5/2007 Outperform 1Y $19.90 -99.96% +39.74% -139.70 0 Comment
IntenseSpider 89.29 10/25/2007 Outperform NS $22.86 -99.97% +39.80% -139.77 0 Comment
tv5cents 97.17 10/23/2007 Outperform 5Y $22.00 -99.97% +38.68% -138.65 0 Comment
Garranova 86.12 10/22/2007 Outperform NS $21.85 -99.97% +41.10% -141.06 0 Comment
Results 1 - 99 of 122 : 1 2 Next »

Featured Broker Partners


Advertisement